createdAt,value
2019-01-21T00:01:37.162Z,46.47
2019-01-21T00:04:05.484Z,45.95
2019-01-21T00:06:33.723Z,47.38
2019-01-21T00:09:01.966Z,46.02
2019-01-21T00:11:30.260Z,46.90
2019-01-21T00:13:58.481Z,46.05
2019-01-21T00:16:26.801Z,47.05
2019-01-21T00:18:55.057Z,46.27
2019-01-21T00:21:23.286Z,47.83
2019-01-21T00:23:51.520Z,47.35
2019-01-21T00:26:19.790Z,46.80
2019-01-21T00:28:48.023Z,46.50
2019-01-21T00:31:16.252Z,44.98
2019-01-21T00:33:44.512Z,47.70
2019-01-21T00:36:12.738Z,46.77
2019-01-21T00:38:40.968Z,46.90
2019-01-21T00:41:09.235Z,46.75
2019-01-21T00:43:37.481Z,46.13
2019-01-21T00:46:05.716Z,46.28
2019-01-21T00:48:33.980Z,47.45
2019-01-21T00:51:02.221Z,46.68
2019-01-21T00:53:30.449Z,46.53
2019-01-21T00:55:58.725Z,46.37
2019-01-21T00:58:26.953Z,46.68
2019-01-21T01:00:55.177Z,46.08
2019-01-21T01:03:23.721Z,46.10
2019-01-21T01:05:51.964Z,47.13
2019-01-21T01:08:20.197Z,45.63
2019-01-21T01:10:48.456Z,46.33
2019-01-21T01:13:16.685Z,46.75
2019-01-21T01:15:44.911Z,47.53
2019-01-21T01:18:13.184Z,47.83
2019-01-21T01:20:41.421Z,48.48
2019-01-21T01:23:09.653Z,47.00
2019-01-21T01:25:37.925Z,46.77
2019-01-21T01:28:06.933Z,48.33
2019-01-21T01:30:35.549Z,48.20
2019-01-21T01:33:03.812Z,47.33
2019-01-21T01:35:32.053Z,45.92
2019-01-21T01:38:00.285Z,46.50
2019-01-21T01:40:28.560Z,46.53
2019-01-21T01:42:56.813Z,46.88
2019-01-21T01:45:25.048Z,46.73
2019-01-21T01:47:58.844Z,48.58
2019-01-21T01:50:27.076Z,46.47
2019-01-21T01:52:56.937Z,45.85
2019-01-21T01:55:26.232Z,46.20
2019-01-21T01:57:55.712Z,47.43
2019-01-21T02:00:23.949Z,46.60
2019-01-21T02:02:52.211Z,47.90
2019-01-21T02:05:20.445Z,46.60
2019-01-21T02:07:48.684Z,46.88
2019-01-21T02:10:16.956Z,47.23
2019-01-21T02:12:45.572Z,46.42
2019-01-21T02:15:15.450Z,46.35
2019-01-21T02:17:43.740Z,47.20
2019-01-21T02:20:25.343Z,46.83
2019-01-21T02:22:55.149Z,46.35
2019-01-21T02:25:26.633Z,49.77
2019-01-21T02:28:13.282Z,47.85
2019-01-21T02:31:17.322Z,51.13
2019-01-21T02:34:01.063Z,48.63
2019-01-21T02:36:47.589Z,48.23
2019-01-21T02:39:28.077Z,47.35
2019-01-21T02:41:59.581Z,48.85
2019-01-21T02:44:46.460Z,48.63
2019-01-21T02:47:20.380Z,47.90
2019-01-21T02:50:04.164Z,47.77
2019-01-21T02:52:38.312Z,46.45
2019-01-21T02:55:27.714Z,46.53
2019-01-21T02:58:29.168Z,45.80
2019-01-21T03:01:21.601Z,45.78
2019-01-21T03:03:58.248Z,46.63
2019-01-21T03:06:32.560Z,45.67
2019-01-21T03:09:20.514Z,46.65
2019-01-21T03:12:04.252Z,46.05
2019-01-21T03:14:50.694Z,46.23
2019-01-21T03:17:48.098Z,45.78
2019-01-21T03:20:25.672Z,43.38
2019-01-21T03:22:57.188Z,43.42
2019-01-21T03:25:40.788Z,43.05
2019-01-21T03:28:33.427Z,42.80
2019-01-21T03:31:16.909Z,43.73
2019-01-21T03:34:23.080Z,43.17
2019-01-21T03:36:57.233Z,43.38
2019-01-21T03:39:49.243Z,42.67
2019-01-21T03:42:21.009Z,42.73
2019-01-21T03:45:25.714Z,43.52
2019-01-21T03:47:57.580Z,42.30
2019-01-21T03:50:29.091Z,42.70
2019-01-21T03:53:15.497Z,42.80
2019-01-21T03:55:43.941Z,41.92
2019-01-21T03:58:48.642Z,41.33
2019-01-21T04:01:39.481Z,41.30
2019-01-21T04:04:13.711Z,42.58
2019-01-21T04:06:45.236Z,40.05
2019-01-21T04:09:33.464Z,39.85
2019-01-21T04:12:13.864Z,40.28
2019-01-21T04:14:45.396Z,40.57
2019-01-21T04:17:25.810Z,41.02
2019-01-21T04:20:15.550Z,41.13
2019-01-21T04:22:50.063Z,38.83
2019-01-21T04:25:42.985Z,40.33
2019-01-21T04:28:32.905Z,40.12
2019-01-21T04:31:33.766Z,40.40
2019-01-21T04:34:13.887Z,39.98
2019-01-21T04:36:57.232Z,39.73
2019-01-21T04:39:37.598Z,40.25
2019-01-21T04:42:09.117Z,41.70
2019-01-21T04:45:12.685Z,41.80
2019-01-21T04:48:18.981Z,40.30
2019-01-21T04:51:19.303Z,41.55
2019-01-21T04:54:07.448Z,40.40
2019-01-21T04:57:14.157Z,40.52
2019-01-21T04:59:53.922Z,41.30
2019-01-21T05:02:51.032Z,41.30
2019-01-21T05:05:34.374Z,40.30
2019-01-21T05:08:08.851Z,41.65
2019-01-21T05:10:54.636Z,41.63
2019-01-21T05:13:28.573Z,41.68
2019-01-21T05:16:05.866Z,42.13
2019-01-21T05:18:55.092Z,41.92
2019-01-21T05:21:44.530Z,42.08
2019-01-21T05:24:37.401Z,42.40
2019-01-21T05:27:17.950Z,42.10
2019-01-21T05:30:21.321Z,40.40
2019-01-21T05:33:01.924Z,42.80
2019-01-21T05:35:45.537Z,41.92
2019-01-21T05:38:31.913Z,43.73
2019-01-21T05:41:06.372Z,44.90
2019-01-21T05:43:53.112Z,43.95
2019-01-21T05:46:36.139Z,41.77
2019-01-21T05:49:19.381Z,42.70
2019-01-21T05:51:59.435Z,42.77
2019-01-21T05:54:36.945Z,43.75
2019-01-21T05:57:11.160Z,42.70
2019-01-21T05:59:57.720Z,45.48
2019-01-21T06:02:47.015Z,47.30
2019-01-21T06:05:24.235Z,44.42
2019-01-21T06:08:04.589Z,44.15
2019-01-21T06:10:36.180Z,42.88
2019-01-21T06:13:19.544Z,42.23
2019-01-21T06:15:56.791Z,42.53
2019-01-21T06:18:45.830Z,42.93
2019-01-21T06:21:35.125Z,43.33
2019-01-21T06:24:06.649Z,44.18
2019-01-21T06:26:47.161Z,44.35
2019-01-21T06:29:24.409Z,44.40
2019-01-21T06:32:21.593Z,44.38
2019-01-21T06:34:55.517Z,46.77
2019-01-21T06:37:32.871Z,45.78
2019-01-21T06:40:34.388Z,48.17
2019-01-21T06:43:05.882Z,45.50
2019-01-21T06:46:12.248Z,45.58
2019-01-21T06:49:04.664Z,44.42
2019-01-21T06:51:42.529Z,43.17
2019-01-21T06:54:33.483Z,42.53
2019-01-21T06:57:11.004Z,43.70
2019-01-21T06:59:51.465Z,44.83
2019-01-21T07:02:39.493Z,45.78
2019-01-21T07:05:16.705Z,43.30
2019-01-21T07:07:53.797Z,44.00
2019-01-21T07:10:49.364Z,45.17
2019-01-21T07:13:35.700Z,44.93
2019-01-21T07:16:16.297Z,44.40
2019-01-21T07:19:04.352Z,42.70
2019-01-21T07:21:41.588Z,42.55
2019-01-21T07:24:28.031Z,42.40
2019-01-21T07:27:11.179Z,58.98
2019-01-21T07:29:54.048Z,49.90
2019-01-21T07:32:41.948Z,49.70
2019-01-21T07:35:18.804Z,46.63
2019-01-21T07:37:55.603Z,48.53
2019-01-21T07:40:43.985Z,47.78
2019-01-21T07:43:37.328Z,44.45
2019-01-21T07:46:11.377Z,43.00
2019-01-21T07:49:05.331Z,42.93
2019-01-21T07:52:10.428Z,41.68
2019-01-21T07:54:50.755Z,40.67
2019-01-21T07:57:46.340Z,39.63
2019-01-21T08:00:29.560Z,40.95
2019-01-21T08:03:01.081Z,39.23
2019-01-21T08:05:41.253Z,37.85
2019-01-21T08:08:27.214Z,38.53
2019-01-21T08:11:10.338Z,36.07
2019-01-21T08:13:56.967Z,37.00
2019-01-21T08:16:43.585Z,35.63
2019-01-21T08:19:33.494Z,37.60
2019-01-21T08:22:10.979Z,37.50
2019-01-21T08:24:54.048Z,36.80
2019-01-21T08:27:31.180Z,37.03
2019-01-21T08:30:14.757Z,38.20
2019-01-21T08:33:15.360Z,38.55
2019-01-21T08:35:52.760Z,37.45
2019-01-21T08:38:45.439Z,38.98
2019-01-21T08:41:19.819Z,38.83
2019-01-21T08:44:02.808Z,37.33
2019-01-21T08:46:40.154Z,36.58
2019-01-21T08:49:23.735Z,35.80
2019-01-21T08:52:03.808Z,36.28
2019-01-21T08:54:37.942Z,36.38
2019-01-21T08:57:09.460Z,36.28
2019-01-21T08:59:49.523Z,35.48
2019-01-21T09:02:41.936Z,35.35
2019-01-21T09:05:13.411Z,35.28
2019-01-21T09:07:59.819Z,33.58
2019-01-21T09:10:51.174Z,33.60
2019-01-21T09:13:43.503Z,32.83
2019-01-21T09:16:20.723Z,33.65
2019-01-21T09:18:52.273Z,32.98
2019-01-21T09:21:32.771Z,32.50
2019-01-21T09:24:36.252Z,30.57
2019-01-21T09:27:32.016Z,30.37
2019-01-21T09:30:15.680Z,30.00
2019-01-21T09:32:49.842Z,32.13
2019-01-21T09:35:47.047Z,30.50
2019-01-21T09:38:41.520Z,31.15
2019-01-21T09:41:13.044Z,30.15
2019-01-21T09:43:45.309Z,28.77
2019-01-21T09:46:28.525Z,29.77
2019-01-21T09:48:55.871Z,30.00
2019-01-21T09:51:24.449Z,29.20
2019-01-21T09:53:53.260Z,29.32
2019-01-21T09:56:21.480Z,30.77
2019-01-21T09:58:50.059Z,29.87
2019-01-21T10:01:18.303Z,28.05
2019-01-21T10:03:46.527Z,28.35
2019-01-21T10:06:14.781Z,28.35
2019-01-21T10:09:04.944Z,28.23
2019-01-21T10:11:45.287Z,28.55
2019-01-21T10:14:38.028Z,27.45
2019-01-21T10:17:12.172Z,28.02
2019-01-21T10:20:07.328Z,28.17
2019-01-21T10:23:06.320Z,27.95
2019-01-21T10:25:49.872Z,27.90
2019-01-21T10:28:39.573Z,26.77
2019-01-21T10:31:31.460Z,26.75
2019-01-21T10:34:20.779Z,27.25
2019-01-21T10:37:10.013Z,27.27
2019-01-21T10:39:53.232Z,27.85
2019-01-21T10:42:33.155Z,26.95
2019-01-21T10:45:13.784Z,26.52
2019-01-21T10:47:54.328Z,26.27
2019-01-21T10:50:25.841Z,26.27
2019-01-21T10:52:59.827Z,26.73
2019-01-21T10:55:49.369Z,27.73
2019-01-21T10:58:29.180Z,27.65
2019-01-21T11:01:09.709Z,26.97
2019-01-21T11:03:49.658Z,26.30
2019-01-21T11:06:42.430Z,26.50
2019-01-21T11:09:26.764Z,28.07
2019-01-21T11:12:19.661Z,26.30
2019-01-21T11:15:02.481Z,26.73
2019-01-21T11:17:46.133Z,26.93
2019-01-21T11:20:20.591Z,26.65
2019-01-21T11:23:07.094Z,26.30
2019-01-21T11:26:12.965Z,26.77
2019-01-21T11:28:46.616Z,26.27
2019-01-21T11:31:27.036Z,27.03
2019-01-21T11:34:01.899Z,26.48
2019-01-21T11:36:39.170Z,26.50
2019-01-21T11:39:22.501Z,26.55
2019-01-21T11:41:53.979Z,26.73
2019-01-21T11:44:28.193Z,26.40
2019-01-21T11:46:59.680Z,27.48
2019-01-21T11:50:10.316Z,26.65
2019-01-21T11:52:40.772Z,26.48
2019-01-21T11:55:15.007Z,26.68
2019-01-21T11:57:58.325Z,26.20
2019-01-21T12:00:46.588Z,26.53
2019-01-21T12:03:24.080Z,26.87
2019-01-21T12:05:54.680Z,27.17
2019-01-21T12:08:41.309Z,27.10
2019-01-21T12:11:30.856Z,27.10
2019-01-21T12:14:24.888Z,27.17
2019-01-21T12:17:02.263Z,27.42
2019-01-21T12:19:40.420Z,27.07
2019-01-21T12:22:31.242Z,26.80
2019-01-21T12:25:14.087Z,26.97
2019-01-21T12:28:03.557Z,27.20
2019-01-21T12:30:35.039Z,26.23
2019-01-21T12:33:12.396Z,27.22
2019-01-21T12:35:56.185Z,27.13
2019-01-21T12:38:44.203Z,27.50
2019-01-21T12:41:44.724Z,26.62
2019-01-21T12:44:39.172Z,27.35
2019-01-21T12:47:22.772Z,27.30
2019-01-21T12:50:13.578Z,26.82
2019-01-21T12:52:45.051Z,27.97
2019-01-21T12:55:34.955Z,27.47
2019-01-21T12:58:18.404Z,26.70
2019-01-21T13:00:52.620Z,27.05
2019-01-21T13:03:54.347Z,26.50
2019-01-21T13:06:51.290Z,26.65
2019-01-21T13:09:31.435Z,26.85
2019-01-21T13:12:14.753Z,27.02
2019-01-21T13:15:01.377Z,28.02
2019-01-21T13:17:32.916Z,26.17
2019-01-21T13:20:10.192Z,26.77
2019-01-21T13:22:51.549Z,26.83
2019-01-21T13:25:25.805Z,26.77
2019-01-21T13:28:21.005Z,27.10
2019-01-21T13:31:01.640Z,27.43
2019-01-21T13:34:01.735Z,27.37
2019-01-21T13:37:05.140Z,26.27
2019-01-21T13:39:36.690Z,27.60
2019-01-21T13:42:08.168Z,25.85
2019-01-21T13:44:39.645Z,25.50
2019-01-21T13:47:37.696Z,26.10
2019-01-21T13:50:27.248Z,26.52
2019-01-21T13:53:07.809Z,27.02
2019-01-21T13:55:51.240Z,25.43
2019-01-21T13:58:34.888Z,25.65
2019-01-21T14:01:21.437Z,26.10
2019-01-21T14:04:01.706Z,25.77
2019-01-21T14:06:42.481Z,26.85
2019-01-21T14:09:16.719Z,26.23
2019-01-21T14:11:59.999Z,25.82
2019-01-21T14:14:37.472Z,25.97
2019-01-21T14:17:26.985Z,26.37
2019-01-21T14:19:58.545Z,25.50
2019-01-21T14:22:36.151Z,25.40
2019-01-21T14:25:31.374Z,24.95
2019-01-21T14:28:30.312Z,25.48
2019-01-21T14:31:01.847Z,26.40
2019-01-21T14:33:42.166Z,25.52
2019-01-21T14:36:30.315Z,26.23
2019-01-21T14:39:07.682Z,25.75
2019-01-21T14:42:05.217Z,24.60
2019-01-21T14:45:00.774Z,25.85
2019-01-21T14:47:57.041Z,25.30
2019-01-21T14:50:40.451Z,25.37
2019-01-21T14:53:23.811Z,25.55
2019-01-21T14:56:04.093Z,26.33
2019-01-21T14:58:38.397Z,25.90
2019-01-21T15:01:15.623Z,25.10
2019-01-21T15:03:59.224Z,25.08
2019-01-21T15:06:33.811Z,26.37
2019-01-21T15:09:17.358Z,25.92
2019-01-21T15:11:48.946Z,25.27
2019-01-21T15:14:23.524Z,26.45
2019-01-21T15:17:16.210Z,26.62
2019-01-21T15:19:45.729Z,27.85
2019-01-21T15:22:33.920Z,27.62
2019-01-21T15:25:20.503Z,28.77
2019-01-21T15:27:57.896Z,29.72
2019-01-21T15:30:55.057Z,29.30
2019-01-21T15:33:50.000Z,28.40
2019-01-21T15:36:22.018Z,28.32
2019-01-21T15:38:59.168Z,28.73
2019-01-21T15:41:53.286Z,28.32
2019-01-21T15:44:39.466Z,27.58
2019-01-21T15:47:22.825Z,28.20
2019-01-21T15:50:15.208Z,28.27
2019-01-21T15:52:58.761Z,27.48
2019-01-21T15:55:35.923Z,28.57
2019-01-21T15:58:19.674Z,28.25
2019-01-21T16:01:12.415Z,28.65
2019-01-21T16:04:11.340Z,27.43
2019-01-21T16:06:52.644Z,28.73
2019-01-21T16:09:30.267Z,28.92
2019-01-21T16:12:21.332Z,29.30
2019-01-21T16:14:58.623Z,27.80
2019-01-21T16:17:40.957Z,28.67
2019-01-21T16:20:12.484Z,29.63
2019-01-21T16:23:17.468Z,29.00
2019-01-21T16:25:49.049Z,29.37
2019-01-21T16:28:29.628Z,29.25
2019-01-21T16:31:01.134Z,27.93
2019-01-21T16:33:48.070Z,28.50
2019-01-21T16:36:31.542Z,29.57
2019-01-21T16:39:03.145Z,29.20
2019-01-21T16:42:00.256Z,31.20
2019-01-21T16:44:28.534Z,30.20
2019-01-21T16:46:56.817Z,34.10
2019-01-21T16:49:25.052Z,36.13
2019-01-21T16:51:53.279Z,31.57
2019-01-21T16:54:21.532Z,34.98
2019-01-21T16:56:49.760Z,30.00
2019-01-21T16:59:18.053Z,31.55
2019-01-21T17:01:46.304Z,36.13
2019-01-21T17:04:14.527Z,40.00
2019-01-21T17:06:42.856Z,39.85
2019-01-21T17:09:11.084Z,37.10
2019-01-21T17:11:39.339Z,37.17
2019-01-21T17:14:09.242Z,37.58
2019-01-21T17:16:37.488Z,37.33
2019-01-21T17:19:05.726Z,36.88
2019-01-21T17:24:02.302Z,36.53
2019-01-21T17:26:30.631Z,38.98
2019-01-21T17:28:58.845Z,38.33
2019-01-21T17:31:27.151Z,39.97
2019-01-21T17:33:55.384Z,39.27
2019-01-21T17:36:23.603Z,40.48
2019-01-21T17:38:51.877Z,39.80
2019-01-21T17:41:20.110Z,41.40
2019-01-21T17:43:48.330Z,40.77
2019-01-21T17:46:16.593Z,40.15
2019-01-21T17:48:44.817Z,41.75
2019-01-21T17:51:13.039Z,42.95
2019-01-21T17:53:41.299Z,42.48
2019-01-21T17:56:09.539Z,42.75
2019-01-21T17:58:37.776Z,42.33
2019-01-21T18:01:06.071Z,41.83
2019-01-21T18:03:34.369Z,42.17
2019-01-21T18:06:02.592Z,42.83
2019-01-21T18:08:30.914Z,43.93
2019-01-21T18:10:59.152Z,43.52
2019-01-21T18:13:27.383Z,44.23
2019-01-21T18:15:55.644Z,43.30
2019-01-21T18:18:24.773Z,43.78
2019-01-21T18:20:53.003Z,48.68
2019-01-21T18:23:21.268Z,48.23
2019-01-21T18:25:49.496Z,48.42
2019-01-21T18:28:17.729Z,47.90
2019-01-21T18:30:45.985Z,50.85
2019-01-21T18:33:14.209Z,49.95
2019-01-21T18:35:42.444Z,52.20
2019-01-21T18:38:10.691Z,51.65
2019-01-21T18:40:38.911Z,51.40
2019-01-21T18:43:07.148Z,51.98
2019-01-21T18:45:35.416Z,54.23
2019-01-21T18:48:03.659Z,53.53
2019-01-21T18:50:31.875Z,53.78
2019-01-21T18:53:00.153Z,54.88
2019-01-21T18:55:28.377Z,53.55
2019-01-21T18:57:56.943Z,51.92
2019-01-21T19:00:25.275Z,51.60
2019-01-21T19:02:53.510Z,51.33
2019-01-21T19:05:21.800Z,51.48
2019-01-21T19:07:50.068Z,53.25
2019-01-21T19:10:18.576Z,49.58
2019-01-21T19:12:46.799Z,50.88
2019-01-21T19:15:17.997Z,52.53
2019-01-21T19:17:46.227Z,53.42
2019-01-21T19:20:15.623Z,53.85
2019-01-21T19:22:43.943Z,53.68
2019-01-21T19:25:12.324Z,55.40
2019-01-21T19:27:40.561Z,54.73
2019-01-21T19:30:14.825Z,53.68
2019-01-21T19:32:43.052Z,51.63
2019-01-21T19:35:14.329Z,55.20
2019-01-21T19:37:42.588Z,53.10
2019-01-21T19:40:14.271Z,50.33
2019-01-21T19:42:42.501Z,56.13
2019-01-21T19:45:11.315Z,55.98
2019-01-21T19:47:39.609Z,57.10
2019-01-21T19:50:17.408Z,56.53
2019-01-21T19:52:45.719Z,59.27
2019-01-21T19:55:20.592Z,56.90
2019-01-21T19:57:48.860Z,57.25
2019-01-21T20:00:19.464Z,58.00
2019-01-21T20:02:47.733Z,59.75
2019-01-21T20:05:16.068Z,59.23
2019-01-21T20:07:44.295Z,56.68
2019-01-21T20:10:15.736Z,54.98
2019-01-21T20:12:44.013Z,60.78
2019-01-21T20:15:14.792Z,63.40
2019-01-21T20:17:43.311Z,64.05
2019-01-21T20:20:20.808Z,66.62
2019-01-21T20:22:49.034Z,66.95
2019-01-21T20:25:17.324Z,70.57
2019-01-21T20:27:45.581Z,64.40
2019-01-21T20:30:16.841Z,63.10
2019-01-21T20:32:45.101Z,69.23
2019-01-21T20:35:14.215Z,66.05
2019-01-21T20:37:42.464Z,71.40
2019-01-21T20:40:27.512Z,70.35
2019-01-21T20:42:55.771Z,65.05
2019-01-21T20:45:24.007Z,69.45
2019-01-21T20:47:52.271Z,71.30
2019-01-21T20:50:28.832Z,75.70
2019-01-21T20:52:57.102Z,73.22
2019-01-21T20:55:26.093Z,73.97
2019-01-21T20:57:54.375Z,75.15
2019-01-21T21:00:27.656Z,75.40
2019-01-21T21:02:56.129Z,73.60
2019-01-21T21:05:24.392Z,70.90
2019-01-21T21:07:54.267Z,70.85
2019-01-21T21:10:22.572Z,68.97
2019-01-21T21:12:50.794Z,64.10
2019-01-21T21:15:24.503Z,67.55
2019-01-21T21:17:52.742Z,60.40
2019-01-21T21:20:21.007Z,60.80
2019-01-21T21:22:49.248Z,59.27
2019-01-21T21:25:18.744Z,62.93
2019-01-21T21:27:47.084Z,70.35
2019-01-21T21:30:20.721Z,69.87
2019-01-21T21:32:49.062Z,67.37
2019-01-21T21:35:17.339Z,68.52
2019-01-21T21:37:45.572Z,68.47
2019-01-21T21:40:18.724Z,71.40
2019-01-21T21:42:46.999Z,67.82
2019-01-21T21:45:16.939Z,73.73
2019-01-21T21:47:45.173Z,66.97
2019-01-21T21:50:16.224Z,69.80
2019-01-21T21:52:44.459Z,71.15
2019-01-21T21:55:12.725Z,72.50
2019-01-21T21:57:41.307Z,72.27
2019-01-21T22:00:15.687Z,69.97
2019-01-21T22:02:44.005Z,71.40
2019-01-21T22:05:12.367Z,63.52
2019-01-21T22:07:40.619Z,66.33
2019-01-21T22:10:12.155Z,67.80
2019-01-21T22:12:40.498Z,66.15
2019-01-21T22:15:17.415Z,63.42
2019-01-21T22:17:45.715Z,65.57
2019-01-21T22:20:17.291Z,67.25
2019-01-21T22:22:45.607Z,68.42
2019-01-21T22:25:13.886Z,64.85
2019-01-21T22:27:42.117Z,63.73
2019-01-21T22:30:15.784Z,62.35
2019-01-21T22:32:44.055Z,63.58
2019-01-21T22:35:12.285Z,60.85
2019-01-21T22:37:40.516Z,65.07
2019-01-21T22:40:15.748Z,62.58
2019-01-21T22:42:44.007Z,62.15
2019-01-21T22:45:13.505Z,62.20
2019-01-21T22:47:41.778Z,65.17
2019-01-21T22:50:12.124Z,66.33
2019-01-21T22:52:42.032Z,63.40
2019-01-21T22:55:12.296Z,64.42
2019-01-21T22:57:40.589Z,58.55
2019-01-21T23:00:12.160Z,60.25
2019-01-21T23:02:41.560Z,64.20
2019-01-21T23:05:09.897Z,61.23
2019-01-21T23:07:38.136Z,60.08
2019-01-21T23:10:07.852Z,64.35
2019-01-21T23:12:37.120Z,57.23
2019-01-21T23:15:07.062Z,61.00
2019-01-21T23:17:35.398Z,60.95
2019-01-21T23:20:04.904Z,56.70
2019-01-21T23:22:33.151Z,59.17
2019-01-21T23:25:01.443Z,61.05
2019-01-21T23:27:29.691Z,58.58
2019-01-21T23:29:58.214Z,57.58
2019-01-21T23:32:26.485Z,60.00
2019-01-21T23:34:54.725Z,59.38
2019-01-21T23:37:22.964Z,63.78
2019-01-21T23:39:51.237Z,62.62
2019-01-21T23:42:19.472Z,61.85
2019-01-21T23:44:47.787Z,61.40
2019-01-21T23:47:16.087Z,59.42
2019-01-21T23:49:44.365Z,59.75
2019-01-21T23:52:12.606Z,59.75
2019-01-21T23:54:40.914Z,59.55
2019-01-21T23:57:09.622Z,59.30
2019-01-21T23:59:37.888Z,59.97
